Otay (75) Station Data

Red Flag Warning: No
Fire Weather Zone: 250
SDGE Region: Eastern
Lat/Lon: 32.72/-116.928

Observations

Time Wind Speed/Gust Temp(F) RH Fuel Moist Fuel Temp(F) Dewpt(F) Tmax(F) Tmin(F) Accum Precip 10-min Precip SL Press(mb)
6/27 5:00pm 269 9 G 14 82° 38% - - 54° 88.4° 72° - - -
6/27 4:50pm 268 9 G 14 82° 37% - - 53° 88.4° 72° - - -
6/27 4:40pm 273 8 G 13 82° 35% - - 52° 88.4° 72° - - -
6/27 4:30pm 278 8 G 12 83° 35% - - 52° 88.4° 72° - - -
6/27 4:20pm 273 9 G 14 83° 34% - - 52° 88.4° 72° - - -
6/27 4:10pm 273 10 G 14 82° 35% - - 51° 88.4° 72° - - -
6/27 4:00pm 272 10 G 14 82° 33% - - 50° 88.4° 72° - - -
6/27 3:50pm 277 9 G 15 82° 32% - - 49° 88.4° 72° - - -
6/27 3:40pm 277 11 G 16 82° 32% - - 49° 88.4° 72° - - -
6/27 3:30pm 271 10 G 17 82° 33% - - 50° 88.4° 72° - - -
6/27 3:20pm 267 12 G 19 81° 35% - - 50° 88.4° 72° - - -
6/27 3:10pm 270 12 G 18 81° 34% - - 50° 88.4° 72° - - -
6/27 3:00pm 270 12 G 19 81° 35% - - 51° 88.4° 72° - - -
6/27 2:50pm 274 11 G 18 81° 35% - - 51° 88.4° 72° - - -
6/27 2:40pm 279 11 G 18 81° 35% - - 51° 88.4° 72° - - -
6/27 2:30pm 276 11 G 15 82° 34% - - 51° 88.4° 72° - - -
6/27 2:20pm 279 10 G 16 83° 33% - - 51° 88.4° 72° - - -
6/27 2:10pm 278 11 G 17 83° 34% - - 52° 88.4° 72° - - -
6/27 2:00pm 278 11 G 18 83° 37% - - 54° 88.4° 72° - - -
6/27 1:50pm 279 11 G 17 83° 37% - - 54° 88.4° 72° - - -
6/27 1:40pm 273 10 G 16 83° 36% - - 53° 88.4° 72° - - -
6/27 1:30pm 265 11 G 18 83° 36% - - 54° 88.4° 72° - - -
6/27 1:20pm 265 10 G 16 83° 38% - - 55° 88.4° 72° - - -
6/27 1:10pm 264 10 G 18 83° 40% - - 56° 88.4° 72° - - -
6/27 1:00pm 267 10 G 17 83° 40% - - 56° 88.4° 72° - - -
6/27 12:50pm 267 9 G 17 84° 38% - - 55° 88.4° 72° - - -
6/27 12:40pm 273 9 G 16 85° 33% - - 52° 88.4° 72° - - -
6/27 12:30pm 265 10 G 17 86° 30% - - 50° 88.4° 72° - - -
6/27 12:20pm 265 9 G 15 86° 29% - - 50° 88.4° 72° - - -
6/27 12:10pm 262 9 G 15 86° 29% - - 50° 88.4° 72° - - -
6/27 12:00pm 272 9 G 14 86° 29% - - 50° 88.4° 72° - - -
6/27 11:50am 266 8 G 13 87° 29% - - 50° 88.4° 72° - - -
6/27 11:40am 257 8 G 13 87° 30% - - 52° 88.4° 72° - - -
6/27 11:30am 266 7 G 12 87° 31% - - 52° 88.4° 72° - - -
6/27 11:20am 268 6 G 14 87° 30% - - 53° 88.4° 72° - - -
6/27 11:10am 274 5 G 9 88° 29% - - 52° 88.4° 72° - - -
6/27 11:00am 267 6 G 10 87° 30% - - 51° 88.4° 72° - - -
6/27 10:50am 279 6 G 9 87° 30% - - 51° 88.4° 72° - - -
6/27 10:40am 285 5 G 9 88° 29% - - 51° 88.4° 72° - - -
6/27 10:30am 303 5 G 12 87° 27% - - 49° 88.3° 72° - - -
6/27 10:20am 311 4 G 8 87° 23% - - 45° 87.7° 72° - - -
6/27 10:10am 271 3 G 7 86° 20% - - 41° 86.8° 72° - - -
6/27 10:00am 278 4 G 11 85° 22% - - 42° 86° 72° - - -
6/27 9:50am 285 6 G 11 84° 27% - - 46° 86° 72° - - -
6/27 9:40am 290 4 G 9 85° 24% - - 44° 86° 72° - - -
6/27 9:30am 294 4 G 8 85° 18% - - 36° 86° 72° - - -
6/27 9:20am 307 4 G 6 85° 18% - - 36° 86° 72° - - -
6/27 9:10am 313 3 G 5 84° 16% - - 33° 86° 72° - - -
6/27 9:00am 308 3 G 5 84° 18% - - 35° 86° 72° - - -
6/27 8:50am 314 2 G 4 83° 19% - - 37° 86° 72° - - -
6/27 8:40am 317 1 G 3 83° 20% - - 38° 86° 72° - - -
6/27 8:30am 0 0 G 0 82° 19% - - 36° 86° 72° - - -
6/27 8:20am 351 0 G 2 82° 20% - - 36° 86° 72° - - -
6/27 8:10am 16 1 G 2 81° 21% - - 37° 86° 72° - - -
6/27 8:00am 42 1 G 2 79° 21% - - 36° 86° 72° - - -
6/27 7:50am 39 1 G 2 79° 20% - - 35° 86° 72° - - -
6/27 7:40am 336 0 G 1 78° 20% - - 33° 86° 72° - - -
6/27 7:30am 59 0 G 1 77° 21% - - 34° 86° 72° - - -
6/27 7:20am 50 1 G 2 76° 22% - - 35° 86° 72° - - -
6/27 7:10am 45 0 G 2 76° 21% - - 34° 86° 72° - - -
6/27 7:00am 41 2 G 4 75° 20% - - 31° 86° 72° - - -
6/27 6:50am 55 4 G 5 74° 20% - - 31° 86° 72° - - -
6/27 6:40am 50 3 G 5 77° 20% - - 33° 86° 72° - - -
6/27 6:30am 84 1 G 2 79° 14% - - 26° 86° 72° - - -
6/27 6:20am 126 1 G 2 75° 20% - - 31° 86° 72° - - -
6/27 6:10am 0 0 G 0 73° 23% - - 34° 86° 72° - - -
6/27 6:00am 0 0 G 0 73° 26% - - 36° 86° 72° - - -
6/27 5:50am 15 0 G 2 74° 28% - - 38° 86° 72° - - -
6/27 5:40am 76 2 G 3 74° 26% - - 38° 86° 72° - - -
6/27 5:30am 76 3 G 5 75° 26% - - 38° 86° 72° - - -
6/27 5:20am 82 1 G 3 74° 26% - - 37° 86° 72° - - -
6/27 5:10am 68 1 G 3 73° 30% - - 40° 86° 72° - - -
6/27 5:00am 0 0 G 0 72° 33% - - 42° 86° 72° - - -
6/27 4:50am 0 0 G 0 73° 31% - - 40° 86° 72.4° - - -
6/27 4:40am 198 1 G 2 73° 31% - - 41° 86° 72.4° - - -
6/27 4:30am 209 1 G 3 74° 27% - - 38° 86° 72.4° - - -
6/27 4:20am 190 1 G 3 74° 24% - - 35° 86° 72.4° - - -
6/27 4:10am 217 1 G 2 73° 29% - - 38° 86° 72.4° - - -
6/27 4:00am 246 2 G 3 74° 27% - - 38° 86° 72.8° - - -
6/27 3:50am 215 2 G 3 75° 24% - - 36° 86° 72.8° - - -
6/27 3:40am 220 1 G 3 75° 24% - - 36° 86° 72.8° - - -
6/27 3:30am 0 0 G 0 75° 28% - - 40° 86° 72.8° - - -
6/27 3:20am 37 1 G 2 76° 27% - - 40° 86° 72.8° - - -
6/27 3:10am 91 1 G 2 76° 28% - - 41° 86° 72.8° - - -
6/27 3:00am 83 1 G 3 76° 28% - - 41° 86° 72.8° - - -
6/27 2:50am 59 2 G 3 76° 29% - - 42° 86° 72.8° - - -
6/27 2:40am 80 1 G 3 75° 28% - - 39° 86° 72.8° - - -
6/27 2:30am 99 1 G 3 74° 36% - - 45° 86° 72.8° - - -
6/27 2:20am 31 1 G 2 77° 26% - - 39° 86° 75° - - -
6/27 2:10am 93 1 G 2 78° 21% - - 35° 86° 76.6° - - -
6/27 2:00am 191 2 G 3 77° 22% - - 35° 86° 76.6° - - -
6/27 1:50am 220 1 G 2 77° 23% - - 36° 86° 76.7° - - -
6/27 1:40am 315 0 G 4 78° 21% - - 34° 86° 77.1° - - -
6/27 1:30am 0 0 G 0 78° 21% - - 35° 86° 77.9° - - -
6/27 1:20am 210 1 G 2 79° 20% - - 34° 86° 78.6° - - -
6/27 1:10am 225 2 G 5 80° 16% - - 30° 86° 78.8° - - -
6/27 1:00am 144 3 G 6 82° 17% - - 33° 86° 80.5° - - -
6/27 12:50am 70 2 G 3 82° 25% - - 43° 86° 80.5° - - -
6/27 12:40am 158 3 G 5 85° 13% - - 29° 86° 81.1° - - -
6/27 12:30am 168 3 G 5 85° 14% - - 30° 85.1° 81.1° - - -
6/27 12:20am 145 1 G 3 82° 14% - - 29° 84.2° 81.1° - - -
6/27 12:10am 100 1 G 2 82° 19% - - 35° 82.5° 81.3° - - -
6/27 12:00am 72 2 G 3 83° 22% - - 40° 93.1° 70.5° - - -
6/26 11:50pm 129 2 G 5 83° 15% - - 31° 93.1° 70.5° - - -
6/26 11:40pm 182 4 G 7 82° 17% - - 34° 93.1° 70.5° - - -
6/26 11:30pm 134 3 G 7 81° 28% - - 44° 93.1° 70.5° - - -
6/26 11:20pm 165 2 G 4 83° 22% - - 41° 93.1° 70.5° - - -
6/26 11:10pm 157 2 G 4 82° 25% - - 43° 93.1° 70.5° - - -
6/26 11:00pm 137 3 G 4 80° 36% - - 51° 93.1° 70.5° - - -
6/26 10:50pm 158 2 G 3 79° 38% - - 51° 93.1° 70.5° - - -
6/26 10:40pm 191 2 G 5 77° 42% - - 52° 93.1° 70.5° - - -
6/26 10:30pm 208 2 G 3 76° 42% - - 51° 93.1° 70.5° - - -
6/26 10:20pm 266 1 G 2 77° 45% - - 54° 93.1° 70.5° - - -
6/26 10:10pm 310 1 G 3 79° 42% - - 54° 93.1° 70.5° - - -
6/26 10:00pm 15 1 G 3 83° 26% - - 44° 93.1° 70.5° - - -
6/26 9:50pm 84 1 G 2 84° 23% - - 42° 93.1° 70.5° - - -
6/26 9:40pm 95 1 G 4 83° 27% - - 46° 93.1° 70.5° - - -
6/26 9:30pm 138 2 G 4 85° 22% - - 42° 93.1° 70.5° - - -
6/26 9:20pm 127 1 G 3 83° 27% - - 46° 93.1° 70.5° - - -
6/26 9:10pm 0 0 G 0 81° 35% - - 50° 93.1° 70.5° - - -
6/26 9:00pm 71 1 G 2 80° 41% - - 54° 93.1° 70.5° - - -
6/26 8:50pm 88 0 G 2 81° 38% - - 53° 93.1° 70.5° - - -
6/26 8:40pm 122 2 G 4 81° 38% - - 53° 93.1° 70.5° - - -
6/26 8:30pm 130 1 G 2 80° 41% - - 55° 93.1° 70.5° - - -
6/26 8:20pm 0 0 G 0 81° 39% - - 54° 93.1° 70.5° - - -
6/26 8:10pm 0 0 G 0 81° 39% - - 54° 93.1° 70.5° - - -
6/26 8:00pm 278 0 G 2 82° 40% - - 55° 93.1° 70.5° - - -
6/26 7:50pm 276 2 G 3 83° 38% - - 54° 93.1° 70.5° - - -
6/26 7:40pm 269 2 G 4 84° 35% - - 54° 93.1° 70.5° - - -
6/26 7:30pm 288 2 G 3 85° 33% - - 53° 93.1° 70.5° - - -
6/26 7:20pm 259 2 G 4 86° 29% - - 51° 93.1° 70.5° - - -
6/26 7:10pm 258 2 G 5 87° 31% - - 52° 93.1° 70.5° - - -
6/26 7:00pm 250 3 G 6 87° 32% - - 53° 93.1° 70.5° - - -
6/26 6:50pm 253 5 G 7 86° 33% - - 54° 93.1° 70.5° - - -
6/26 6:40pm 255 6 G 9 86° 33% - - 54° 93.1° 70.5° - - -
6/26 6:30pm 252 5 G 9 86° 34% - - 54° 93.1° 70.5° - - -
6/26 6:20pm 259 6 G 10 86° 35% - - 55° 93.1° 70.5° - - -
6/26 6:10pm 260 6 G 10 87° 33% - - 55° 93.1° 70.5° - - -
6/26 6:00pm 253 6 G 10 88° 32% - - 55° 93.1° 70.5° - - -
6/26 5:50pm 261 6 G 10 88° 31% - - 54° 93.1° 70.5° - - -
6/26 5:40pm 264 5 G 10 88° 32% - - 54° 93.1° 70.5° - - -
6/26 5:30pm 264 6 G 9 88° 33% - - 55° 93.1° 70.5° - - -
6/26 5:20pm 270 6 G 10 88° 33% - - 55° 93.1° 70.5° - - -
6/26 5:10pm 264 6 G 10 88° 33% - - 56° 93.1° 70.5° - - -
6/26 5:00pm 271 7 G 13 88° 34% - - 56° 93.1° 70.5° - - -
6/26 4:50pm 268 8 G 15 89° 33% - - 56° 93.1° 70.5° - - -
6/26 4:40pm 267 8 G 12 89° 33% - - 56° 93.1° 70.5° - - -
6/26 4:30pm 267 7 G 13 89° 33% - - 57° 93.1° 70.5° - - -
6/26 4:20pm 258 7 G 13 89° 34% - - 57° 93.1° 70.5° - - -
6/26 4:10pm 267 8 G 13 90° 33% - - 57° 93.1° 70.5° - - -
6/26 4:00pm 267 8 G 13 90° 33% - - 57° 93.1° 70.5° - - -
6/26 3:50pm 276 7 G 12 90° 33% - - 57° 93.1° 70.5° - - -
6/26 3:40pm 266 8 G 14 90° 32% - - 56° 93.1° 70.5° - - -
6/26 3:30pm 264 8 G 14 90° 31% - - 55° 93.1° 70.5° - - -
6/26 3:20pm 265 9 G 14 91° 29% - - 54° 93.1° 70.5° - - -
6/26 3:10pm 259 10 G 15 91° 29% - - 54° 93.1° 70.5° - - -
6/26 3:00pm 255 8 G 14 92° 27% - - 53° 93.1° 70.5° - - -
6/26 2:50pm 260 7 G 13 91° 27% - - 52° 93.1° 70.5° - - -
6/26 2:40pm 262 9 G 14 91° 26% - - 51° 93.1° 70.5° - - -
6/26 2:30pm 261 9 G 14 92° 23% - - 49° 93.1° 70.5° - - -
6/26 2:20pm 263 8 G 13 92° 22% - - 48° 93.1° 70.5° - - -
6/26 2:10pm 268 6 G 11 91° 23% - - 48° 92° 70.5° - - -
6/26 2:00pm 272 6 G 9 91° 26% - - 51° 91.5° 70.5° - - -
6/26 1:50pm 272 7 G 11 90° 28% - - 52° 90.6° 70.5° - - -
6/26 1:40pm 272 7 G 12 89° 30% - - 54° 90.1° 70.5° - - -
6/26 1:30pm 271 7 G 11 89° 31% - - 54° 89.7° 70.5° - - -
6/26 1:20pm 270 6 G 10 88° 33% - - 55° 89.4° 70.5° - - -
6/26 1:10pm 274 7 G 11 87° 35% - - 56° 87.6° 70.5° - - -
6/26 1:00pm 271 7 G 12 87° 35% - - 56° 87.5° 70.5° - - -
6/26 12:50pm 269 7 G 12 87° 36% - - 56° 87.5° 70.5° - - -
6/26 12:40pm 267 6 G 11 86° 37% - - 57° 87.2° 70.5° - - -
6/26 12:30pm 261 6 G 11 86° 37% - - 57° 87.2° 70.5° - - -
6/26 12:20pm 266 5 G 10 86° 38% - - 57° 87.2° 70.5° - - -
6/26 12:10pm 264 5 G 10 86° 39% - - 58° 87.2° 70.5° - - -
6/26 12:00pm 260 5 G 10 86° 40% - - 59° 87.2° 70.5° - - -
6/26 11:50am 273 4 G 9 86° 41% - - 59° 87.2° 70.5° - - -
6/26 11:40am 270 4 G 6 84° 44% - - 59° 87.2° 70.5° - - -
6/26 11:30am 272 4 G 7 84° 44% - - 59° 87.2° 70.5° - - -
6/26 11:20am 268 5 G 9 82° 47% - - 60° 87.2° 70.5° - - -
6/26 11:10am 260 6 G 12 82° 47% - - 60° 87.2° 70.5° - - -
6/26 11:00am 259 6 G 11 82° 48% - - 60° 87.2° 70.5° - - -
6/26 10:50am 263 6 G 10 82° 48% - - 60° 87.2° 70.5° - - -
6/26 10:40am 266 5 G 8 83° 46% - - 60° 87.2° 70.5° - - -
6/26 10:30am 271 3 G 6 84° 45% - - 60° 87.2° 70.5° - - -
6/26 10:20am 278 3 G 7 82° 48% - - 60° 87.2° 70.5° - - -
6/26 10:10am 305 4 G 7 82° 49% - - 61° 87.2° 70.5° - - -
6/26 10:00am 284 3 G 8 83° 46% - - 60° 87.2° 70.5° - - -
6/26 9:50am 253 5 G 9 81° 50% - - 61° 87.2° 70.5° - - -
6/26 9:40am 259 5 G 10 83° 45% - - 59° 87.2° 70.5° - - -
6/26 9:30am 261 4 G 8 83° 42% - - 57° 87.2° 70.5° - - -
6/26 9:20am 272 3 G 6 85° 38% - - 56° 87.2° 70.5° - - -
6/26 9:10am 324 3 G 5 83° 38% - - 55° 87.2° 70.5° - - -
6/26 9:00am 314 3 G 5 82° 38% - - 54° 87.2° 70.5° - - -
6/26 8:50am 305 3 G 5 82° 35% - - 51° 87.2° 70.5° - - -
6/26 8:40am 339 2 G 4 81° 36% - - 52° 87.2° 70.5° - - -
6/26 8:30am 327 2 G 3 80° 36% - - 51° 87.2° 70.5° - - -
6/26 8:20am 316 1 G 3 80° 34% - - 49° 87.2° 70.5° - - -
6/26 8:10am 317 2 G 3 80° 34% - - 49° 87.2° 70.5° - - -
6/26 8:00am 285 1 G 2 81° 33% - - 49° 87.2° 70.5° - - -
6/26 7:50am 284 0 G 2 82° 33% - - 50° 87.2° 70.5° - - -
6/26 7:40am 269 0 G 1 81° 31% - - 48° 87.2° 70.5° - - -
6/26 7:30am 358 0 G 1 82° 31% - - 48° 87.2° 70.5° - - -
6/26 7:20am 11 0 G 1 83° 29% - - 47° 87.2° 70.5° - - -
6/26 7:10am 69 0 G 1 81° 27% - - 44° 87.2° 70.5° - - -
6/26 7:00am 54 0 G 1 81° 24% - - 41° 87.2° 70.5° - - -
6/26 6:50am 52 0 G 1 78° 26% - - 41° 87.2° 70.5° - - -
6/26 6:40am 50 1 G 2 76° 31% - - 43° 87.2° 70.5° - - -
6/26 6:30am 53 1 G 3 76° 33% - - 45° 87.2° 70.5° - - -
6/26 6:20am 0 0 G 0 77° 31% - - 44° 87.2° 70.5° - - -
6/26 6:10am 207 1 G 4 77° 28% - - 41° 87.2° 70.5° - - -
6/26 6:00am 223 3 G 4 75° 34% - - 45° 87.2° 70.5° - - -